createdAt,value
2023-12-16T00:00:59.555Z,19.50
2023-12-16T00:03:42.381Z,19.20
2023-12-16T00:06:16.627Z,14.30
2023-12-16T00:08:50.866Z,15.90
2023-12-16T00:11:24.615Z,19.10
2023-12-16T00:13:58.808Z,20.60
2023-12-16T00:16:32.469Z,19.20
2023-12-16T00:19:06.820Z,19.30
2023-12-16T00:21:41.006Z,20.40
2023-12-16T00:24:15.016Z,21.30
2023-12-16T00:26:48.692Z,18.10
2023-12-16T00:29:22.452Z,18.70
2023-12-16T00:31:56.277Z,17.80
2023-12-16T00:34:29.313Z,15.90
2023-12-16T00:37:07.808Z,15.80
2023-12-16T00:39:41.543Z,14.80
2023-12-16T00:42:15.134Z,14.30
2023-12-16T00:44:48.676Z,14.90
2023-12-16T00:47:22.026Z,16.10
2023-12-16T00:49:55.482Z,17.40
2023-12-16T00:52:28.541Z,15.40
2023-12-16T00:55:02.049Z,15.40
2023-12-16T00:57:35.899Z,18.80
2023-12-16T01:00:13.433Z,15.20
2023-12-16T01:02:47.102Z,15.40
2023-12-16T01:05:21.112Z,18.00
2023-12-16T01:07:54.699Z,21.20
2023-12-16T01:10:28.465Z,16.50
2023-12-16T01:13:01.712Z,16.90
2023-12-16T01:15:35.852Z,13.30
2023-12-16T01:18:10.264Z,17.40
2023-12-16T01:20:44.013Z,15.10
2023-12-16T01:23:17.464Z,20.30
2023-12-16T01:25:51.307Z,17.00
2023-12-16T01:28:25.062Z,18.70
2023-12-16T01:30:59.112Z,16.60
2023-12-16T01:33:33.164Z,17.40
2023-12-16T01:36:07.462Z,15.40
2023-12-16T01:38:41.317Z,13.30
2023-12-16T01:41:15.326Z,18.60
2023-12-16T01:43:49.069Z,16.80
2023-12-16T01:46:24.120Z,16.10
2023-12-16T01:48:59.135Z,16.90
2023-12-16T01:51:33.717Z,19.30
2023-12-16T01:54:09.066Z,17.30
2023-12-16T01:56:42.411Z,21.60
2023-12-16T01:59:15.984Z,22.30
2023-12-16T02:01:49.751Z,16.80
2023-12-16T02:04:24.246Z,21.10
2023-12-16T02:06:58.080Z,21.20
2023-12-16T02:09:31.859Z,19.70
2023-12-16T02:12:06.198Z,19.60
2023-12-16T02:14:39.702Z,21.00
2023-12-16T02:17:14.471Z,21.00
2023-12-16T02:19:52.681Z,18.10
2023-12-16T02:22:26.169Z,19.00
2023-12-16T02:25:00.422Z,17.00
2023-12-16T02:27:34.140Z,18.30
2023-12-16T02:30:09.121Z,17.60
2023-12-16T02:32:44.499Z,16.20
2023-12-16T02:35:18.291Z,20.70
2023-12-16T02:37:51.787Z,20.60
2023-12-16T02:40:25.350Z,22.30
2023-12-16T02:42:59.120Z,13.10
2023-12-16T02:45:32.810Z,22.90
2023-12-16T02:48:07.321Z,18.90
2023-12-16T02:50:40.473Z,21.30
2023-12-16T02:53:14.028Z,19.80
2023-12-16T02:55:47.659Z,20.00
2023-12-16T02:58:21.481Z,19.10
2023-12-16T03:00:55.188Z,20.70
2023-12-16T03:03:29.074Z,20.00
2023-12-16T03:06:08.842Z,21.70
2023-12-16T03:08:42.420Z,18.10
2023-12-16T03:11:15.967Z,18.30
2023-12-16T03:13:49.622Z,22.60
2023-12-16T03:16:23.274Z,22.20
2023-12-16T03:18:57.264Z,19.40
2023-12-16T03:21:30.925Z,19.80
2023-12-16T03:24:05.472Z,21.40
2023-12-16T03:26:38.933Z,19.60
2023-12-16T03:29:13.183Z,19.40
2023-12-16T03:31:46.965Z,19.60
2023-12-16T03:34:20.553Z,22.00
2023-12-16T03:36:54.167Z,20.00
2023-12-16T03:39:27.664Z,21.80
2023-12-16T03:42:01.171Z,20.50
2023-12-16T03:44:34.551Z,20.60
2023-12-16T03:47:08.185Z,21.00
2023-12-16T03:49:42.091Z,22.50
2023-12-16T03:52:16.105Z,19.10
2023-12-16T03:54:49.663Z,17.90
2023-12-16T03:57:23.524Z,22.10
2023-12-16T03:59:56.492Z,23.00
2023-12-16T04:02:30.088Z,15.00
2023-12-16T04:05:03.931Z,22.50
2023-12-16T04:07:37.846Z,19.10
2023-12-16T04:10:13.563Z,20.30
2023-12-16T04:12:47.451Z,21.00
2023-12-16T04:15:20.664Z,20.70
2023-12-16T04:17:54.162Z,20.50
2023-12-16T04:20:30.272Z,19.20
2023-12-16T04:23:04.185Z,17.50
2023-12-16T04:25:37.846Z,24.50
2023-12-16T04:28:10.687Z,19.20
2023-12-16T04:30:44.502Z,15.90
2023-12-16T04:33:17.412Z,16.20
2023-12-16T04:35:53.434Z,16.60
2023-12-16T04:38:26.844Z,18.30
2023-12-16T04:40:59.618Z,19.70
2023-12-16T04:43:33.443Z,16.60
2023-12-16T04:46:07.358Z,22.20
2023-12-16T04:48:40.952Z,14.70
2023-12-16T04:51:14.905Z,17.40
2023-12-16T04:53:48.336Z,16.20
2023-12-16T04:56:21.967Z,17.60
2023-12-16T04:58:55.648Z,15.20
2023-12-16T05:01:29.364Z,19.70
2023-12-16T05:04:03.155Z,15.20
2023-12-16T05:06:36.909Z,15.00
2023-12-16T05:09:11.790Z,13.30
2023-12-16T05:11:45.523Z,16.80
2023-12-16T05:14:19.296Z,15.90
2023-12-16T05:16:52.905Z,17.10
2023-12-16T05:19:27.328Z,17.90
2023-12-16T05:22:01.386Z,14.00
2023-12-16T05:24:35.242Z,15.50
2023-12-16T05:27:09.361Z,19.10
2023-12-16T05:29:43.026Z,17.30
2023-12-16T05:32:16.841Z,18.40
2023-12-16T05:34:50.455Z,18.00
2023-12-16T05:37:24.164Z,16.00
2023-12-16T05:39:57.498Z,17.10
2023-12-16T05:42:31.366Z,17.40
2023-12-16T05:45:05.326Z,17.30
2023-12-16T05:47:39.162Z,18.30
2023-12-16T05:50:13.088Z,20.50
2023-12-16T05:52:46.696Z,17.60
2023-12-16T05:55:20.299Z,18.80
2023-12-16T05:57:54.045Z,17.30
2023-12-16T06:00:28.534Z,17.00
2023-12-16T06:03:02.738Z,17.00
2023-12-16T06:05:37.903Z,21.20
2023-12-16T06:08:11.483Z,17.40
2023-12-16T06:10:45.200Z,20.00
2023-12-16T06:13:19.069Z,19.20
2023-12-16T06:16:03.763Z,18.20
2023-12-16T06:18:46.550Z,16.10
2023-12-16T06:21:20.086Z,19.10
2023-12-16T06:23:53.915Z,21.00
2023-12-16T06:26:28.980Z,21.10
2023-12-16T06:29:02.796Z,18.90
2023-12-16T06:31:36.466Z,17.00
2023-12-16T06:34:10.533Z,17.20
2023-12-16T06:36:43.819Z,20.50
2023-12-16T06:39:17.737Z,18.50
2023-12-16T06:41:51.695Z,15.40
2023-12-16T06:44:25.165Z,19.70
2023-12-16T06:46:58.932Z,18.30
2023-12-16T06:49:33.283Z,17.60
2023-12-16T06:52:07.915Z,20.40
2023-12-16T06:54:41.517Z,19.10
2023-12-16T06:57:15.295Z,18.10
2023-12-16T06:59:49.133Z,18.60
2023-12-16T07:02:22.868Z,17.30
2023-12-16T07:04:57.412Z,19.20
2023-12-16T07:07:32.836Z,16.00
2023-12-16T07:10:08.142Z,21.30
2023-12-16T07:12:41.927Z,14.60
2023-12-16T07:15:15.872Z,17.30
2023-12-16T07:17:50.222Z,16.00
2023-12-16T07:20:24.118Z,19.80
2023-12-16T07:22:57.848Z,14.80
2023-12-16T07:25:31.721Z,14.70
2023-12-16T07:28:05.072Z,21.60
2023-12-16T07:30:38.626Z,16.40
2023-12-16T07:33:11.967Z,17.60
2023-12-16T07:35:46.031Z,15.90
2023-12-16T07:38:19.889Z,18.40
2023-12-16T07:40:53.776Z,18.00
2023-12-16T07:43:27.944Z,24.10
2023-12-16T07:46:01.649Z,17.90
2023-12-16T07:48:34.940Z,21.30
2023-12-16T07:51:09.362Z,19.60
2023-12-16T07:53:45.019Z,24.80
2023-12-16T07:56:23.682Z,17.30
2023-12-16T07:58:58.915Z,20.80
2023-12-16T08:01:32.175Z,21.90
2023-12-16T08:04:05.324Z,17.40
2023-12-16T08:06:39.606Z,18.40
2023-12-16T08:09:13.438Z,20.60
2023-12-16T08:11:47.605Z,20.00
2023-12-16T08:14:21.313Z,17.40
2023-12-16T08:16:55.323Z,19.80
2023-12-16T08:19:29.291Z,15.80
2023-12-16T08:22:03.324Z,21.50
2023-12-16T08:24:37.671Z,19.50
2023-12-16T08:27:11.371Z,21.40
2023-12-16T08:29:45.110Z,21.80
2023-12-16T08:32:18.852Z,18.70
2023-12-16T08:34:52.770Z,19.40
2023-12-16T08:37:26.475Z,22.50
2023-12-16T08:39:59.660Z,21.50
2023-12-16T08:42:33.703Z,17.10
2023-12-16T08:45:09.031Z,16.30
2023-12-16T08:47:43.465Z,19.50
2023-12-16T08:50:17.917Z,18.30
2023-12-16T08:52:50.934Z,18.80
2023-12-16T08:55:25.944Z,17.20
2023-12-16T08:57:59.599Z,21.50
2023-12-16T09:00:33.533Z,17.90
2023-12-16T09:03:07.468Z,18.40
2023-12-16T09:05:41.304Z,17.50
2023-12-16T09:08:15.145Z,16.30
2023-12-16T09:10:48.969Z,17.90
2023-12-16T09:13:22.889Z,19.20
2023-12-16T09:15:57.278Z,24.00
2023-12-16T09:18:31.465Z,14.50
2023-12-16T09:21:05.695Z,23.50
2023-12-16T09:23:40.257Z,18.10
2023-12-16T09:26:14.958Z,17.00
2023-12-16T09:28:48.935Z,23.60
2023-12-16T09:31:22.723Z,19.20
2023-12-16T09:33:57.243Z,17.20
2023-12-16T09:36:31.869Z,18.10
2023-12-16T09:39:05.774Z,19.00
2023-12-16T09:41:46.045Z,20.40
2023-12-16T09:44:20.515Z,20.30
2023-12-16T09:46:56.406Z,18.20
2023-12-16T09:49:31.081Z,22.90
2023-12-16T09:52:05.019Z,13.80
2023-12-16T09:54:39.927Z,18.50
2023-12-16T09:57:14.502Z,18.80
2023-12-16T09:59:49.223Z,19.60
2023-12-16T10:02:29.287Z,19.60
2023-12-16T10:05:04.571Z,16.50
2023-12-16T10:07:38.631Z,18.00
2023-12-16T10:10:13.586Z,12.50
2023-12-16T10:12:47.403Z,17.00
2023-12-16T10:15:33.157Z,20.60
2023-12-16T10:18:08.008Z,15.70
2023-12-16T10:20:41.679Z,14.20
2023-12-16T10:23:16.541Z,14.80
2023-12-16T10:25:50.048Z,15.20
2023-12-16T10:28:23.899Z,16.50
2023-12-16T10:30:57.743Z,12.70
2023-12-16T10:33:33.176Z,13.50
2023-12-16T10:36:09.041Z,20.50
2023-12-16T10:38:42.759Z,13.60
2023-12-16T10:41:16.626Z,15.90
2023-12-16T10:43:50.641Z,15.40
2023-12-16T10:46:25.171Z,17.20
2023-12-16T10:49:03.711Z,16.40
2023-12-16T10:51:40.192Z,16.30
2023-12-16T10:54:16.452Z,15.40
2023-12-16T10:57:00.122Z,13.90
2023-12-16T10:59:39.101Z,16.60
2023-12-16T11:02:28.464Z,16.40
2023-12-16T11:05:09.696Z,14.90
2023-12-16T11:07:44.462Z,14.40
2023-12-16T11:10:19.789Z,11.70
2023-12-16T11:12:55.047Z,12.20
2023-12-16T11:15:30.046Z,17.10
2023-12-16T11:18:06.323Z,16.70
2023-12-16T11:20:43.891Z,14.10
2023-12-16T11:23:18.743Z,14.50
2023-12-16T11:25:53.313Z,16.10
2023-12-16T11:28:29.144Z,13.40
2023-12-16T11:31:03.413Z,13.20
2023-12-16T11:33:48.728Z,14.30
2023-12-16T11:36:57.023Z,12.90
2023-12-16T11:39:46.652Z,14.90
2023-12-16T11:42:56.469Z,11.80
2023-12-16T11:45:44.405Z,11.70
2023-12-16T11:48:19.809Z,14.20
2023-12-16T11:50:54.436Z,12.30
2023-12-16T11:53:30.683Z,10.90
2023-12-16T11:56:05.430Z,13.70
2023-12-16T11:58:39.342Z,11.80
2023-12-16T12:01:13.629Z,12.20
2023-12-16T12:03:47.626Z,11.10
2023-12-16T12:06:21.608Z,15.70
2023-12-16T12:08:58.630Z,10.20
2023-12-16T12:11:33.185Z,14.10
2023-12-16T12:14:08.284Z,11.40
2023-12-16T12:16:42.484Z,13.70
2023-12-16T12:19:18.312Z,13.70
2023-12-16T12:21:52.324Z,10.40
2023-12-16T12:24:26.242Z,16.40
2023-12-16T12:27:01.164Z,12.70
2023-12-16T12:30:02.162Z,16.10
2023-12-16T12:32:37.524Z,14.30
2023-12-16T12:35:13.959Z,13.70
2023-12-16T12:37:49.474Z,13.50
2023-12-16T12:40:24.584Z,10.10
2023-12-16T12:43:00.493Z,15.20
2023-12-16T12:45:37.315Z,12.20
2023-12-16T12:48:19.618Z,15.50
2023-12-16T12:51:08.417Z,10.10
2023-12-16T12:53:43.742Z,12.10
2023-12-16T12:56:18.309Z,8.90
2023-12-16T12:58:51.804Z,10.60
2023-12-16T13:01:26.218Z,12.10
2023-12-16T13:04:01.019Z,13.20
2023-12-16T13:06:35.180Z,11.10
2023-12-16T13:09:10.208Z,12.90
2023-12-16T13:11:43.604Z,15.00
2023-12-16T13:14:23.572Z,14.10
2023-12-16T13:17:01.949Z,12.20
2023-12-16T13:19:36.919Z,13.40
2023-12-16T13:22:11.003Z,16.70
2023-12-16T13:24:44.878Z,11.90
2023-12-16T13:27:18.619Z,11.10
2023-12-16T13:29:52.341Z,13.00
2023-12-16T13:32:26.281Z,12.10
2023-12-16T13:34:59.805Z,13.30
2023-12-16T13:37:33.453Z,10.90
2023-12-16T13:40:10.035Z,11.30
2023-12-16T13:42:43.993Z,12.50
2023-12-16T13:45:18.113Z,12.70
2023-12-16T13:47:51.965Z,13.90
2023-12-16T13:50:25.935Z,12.30
2023-12-16T13:53:00.401Z,13.10
2023-12-16T13:55:34.466Z,11.90
2023-12-16T13:58:08.459Z,11.70
2023-12-16T14:00:42.210Z,12.00
2023-12-16T14:03:15.639Z,12.70
2023-12-16T14:05:49.676Z,13.00
2023-12-16T14:08:23.909Z,12.10
2023-12-16T14:10:57.467Z,13.60
2023-12-16T14:13:31.805Z,12.40
2023-12-16T14:16:06.463Z,10.50
2023-12-16T14:18:40.412Z,13.40
2023-12-16T14:21:15.465Z,10.90
2023-12-16T14:23:49.459Z,13.10
2023-12-16T14:26:23.416Z,12.20
2023-12-16T14:28:57.549Z,11.40
2023-12-16T14:31:31.232Z,10.40
2023-12-16T14:34:05.331Z,11.90
2023-12-16T14:36:39.903Z,14.90
2023-12-16T14:39:13.935Z,20.20
2023-12-16T14:41:49.285Z,13.40
2023-12-16T14:44:23.681Z,14.00
2023-12-16T14:46:57.652Z,12.50
2023-12-16T14:49:31.522Z,11.20
2023-12-16T14:52:05.849Z,13.70
2023-12-16T14:54:40.040Z,12.00
2023-12-16T14:57:13.275Z,11.30
2023-12-16T14:59:48.246Z,13.80
2023-12-16T15:02:22.575Z,14.00
2023-12-16T15:04:56.305Z,15.30
2023-12-16T15:07:29.975Z,13.20
2023-12-16T15:10:03.978Z,12.90
2023-12-16T15:12:38.288Z,14.00
2023-12-16T15:15:13.589Z,16.70
2023-12-16T15:17:56.250Z,13.10
2023-12-16T15:20:33.579Z,17.00
2023-12-16T15:23:08.336Z,13.40
2023-12-16T15:25:43.592Z,14.30
2023-12-16T15:28:18.619Z,14.60
2023-12-16T15:30:52.372Z,15.60
2023-12-16T15:33:26.400Z,16.80
2023-12-16T15:35:59.379Z,16.60
2023-12-16T15:38:33.413Z,16.80
2023-12-16T15:41:06.862Z,17.30
2023-12-16T15:43:40.643Z,16.50
2023-12-16T15:46:14.367Z,17.10
2023-12-16T15:48:48.260Z,14.30
2023-12-16T15:51:29.423Z,18.10
2023-12-16T15:54:05.629Z,16.80
2023-12-16T15:56:44.523Z,16.60
2023-12-16T15:59:18.573Z,15.90
2023-12-16T16:01:52.807Z,17.50
2023-12-16T16:04:26.239Z,18.30
2023-12-16T16:07:00.121Z,22.00
2023-12-16T16:09:34.519Z,20.10
2023-12-16T16:12:09.845Z,16.70
2023-12-16T16:14:44.468Z,11.80
2023-12-16T16:17:18.211Z,16.20
2023-12-16T16:19:52.320Z,17.40
2023-12-16T16:22:25.531Z,13.40
2023-12-16T16:25:11.401Z,13.40
2023-12-16T16:27:45.232Z,14.50
2023-12-16T16:30:19.931Z,13.60
2023-12-16T16:32:54.213Z,13.50
2023-12-16T16:35:28.138Z,15.00
2023-12-16T16:38:01.993Z,17.90
2023-12-16T16:40:36.282Z,17.70
2023-12-16T16:43:10.005Z,18.10
2023-12-16T16:45:44.525Z,16.80
2023-12-16T16:48:17.981Z,14.50
2023-12-16T16:50:52.089Z,15.80
2023-12-16T16:53:26.230Z,20.00
2023-12-16T16:56:00.041Z,19.80
2023-12-16T16:58:33.995Z,16.60
2023-12-16T17:01:08.455Z,17.60
2023-12-16T17:03:42.963Z,16.30
2023-12-16T17:06:17.850Z,14.10
2023-12-16T17:08:52.117Z,13.60
2023-12-16T17:11:26.973Z,15.60
2023-12-16T17:14:01.079Z,17.30
2023-12-16T17:16:35.440Z,14.80
2023-12-16T17:19:10.556Z,12.70
2023-12-16T17:21:44.461Z,17.00
2023-12-16T17:24:19.137Z,14.80
2023-12-16T17:26:53.298Z,17.00
2023-12-16T17:29:27.485Z,15.90
2023-12-16T17:32:01.718Z,14.90
2023-12-16T17:34:35.609Z,14.30
2023-12-16T17:37:10.982Z,15.90
2023-12-16T17:39:44.926Z,16.80
2023-12-16T17:42:18.241Z,19.90
2023-12-16T17:44:52.437Z,16.80
2023-12-16T17:47:26.654Z,16.20
2023-12-16T17:50:02.515Z,18.30
2023-12-16T17:52:37.345Z,17.90
2023-12-16T17:55:13.093Z,18.80
2023-12-16T17:57:49.101Z,17.20
2023-12-16T18:00:23.369Z,17.00
2023-12-16T18:02:57.479Z,19.10
2023-12-16T18:05:30.933Z,18.30
2023-12-16T18:08:07.159Z,24.10
2023-12-16T18:10:41.521Z,19.00
2023-12-16T18:13:15.762Z,25.20
2023-12-16T18:15:50.044Z,22.20
2023-12-16T18:18:24.933Z,24.80
2023-12-16T18:21:01.830Z,27.40
2023-12-16T18:23:36.414Z,38.80
2023-12-16T18:26:12.285Z,31.50
2023-12-16T18:28:47.547Z,27.30
2023-12-16T18:31:20.995Z,27.30
2023-12-16T18:33:55.058Z,24.70
2023-12-16T18:36:30.530Z,24.40
2023-12-16T18:39:05.480Z,28.60
2023-12-16T18:41:39.591Z,27.70
2023-12-16T18:44:14.635Z,32.50
2023-12-16T18:46:48.569Z,29.70
2023-12-16T18:49:22.669Z,32.60
2023-12-16T18:51:57.169Z,30.20
2023-12-16T18:54:30.962Z,32.00
2023-12-16T18:57:05.767Z,27.50
2023-12-16T18:59:39.896Z,27.50
2023-12-16T19:02:14.371Z,27.60
2023-12-16T19:04:48.149Z,25.00
2023-12-16T19:07:24.933Z,24.30
2023-12-16T19:09:58.907Z,26.50
2023-12-16T19:12:33.007Z,25.10
2023-12-16T19:15:07.625Z,20.30
2023-12-16T19:17:42.167Z,20.30
2023-12-16T19:20:18.019Z,21.10
2023-12-16T19:22:54.594Z,22.50
2023-12-16T19:25:28.836Z,23.90
2023-12-16T19:28:03.905Z,20.60
2023-12-16T19:30:38.076Z,24.30
2023-12-16T19:33:12.862Z,26.20
2023-12-16T19:35:46.182Z,26.50
2023-12-16T19:38:19.436Z,25.40
2023-12-16T19:40:53.460Z,25.20
2023-12-16T19:43:29.459Z,25.60
2023-12-16T19:46:04.853Z,25.30
2023-12-16T19:49:02.014Z,28.50
2023-12-16T19:51:37.560Z,29.80
2023-12-16T19:54:12.997Z,22.50
2023-12-16T19:56:46.527Z,23.30
2023-12-16T19:59:21.641Z,26.10
2023-12-16T20:01:55.816Z,21.90
2023-12-16T20:04:30.211Z,21.60
2023-12-16T20:07:04.496Z,22.30
2023-12-16T20:09:38.675Z,21.70
2023-12-16T20:12:13.004Z,20.60
2023-12-16T20:14:47.176Z,20.80
2023-12-16T20:17:22.488Z,23.70
2023-12-16T20:19:57.852Z,25.80
2023-12-16T20:22:32.127Z,20.70
2023-12-16T20:25:06.595Z,23.00
2023-12-16T20:27:42.284Z,22.50
2023-12-16T20:30:17.778Z,20.30
2023-12-16T20:32:52.081Z,22.40
2023-12-16T20:35:26.020Z,24.70
2023-12-16T20:38:02.642Z,25.30
2023-12-16T20:40:37.195Z,23.00
2023-12-16T20:43:11.220Z,21.30
2023-12-16T20:45:45.045Z,26.80
2023-12-16T20:48:18.552Z,25.20
2023-12-16T20:50:54.082Z,21.60
2023-12-16T20:53:28.749Z,19.20
2023-12-16T20:56:03.444Z,18.70
2023-12-16T20:58:38.116Z,20.50
2023-12-16T21:01:12.765Z,18.70
2023-12-16T21:03:46.662Z,20.00
2023-12-16T21:06:21.455Z,18.40
2023-12-16T21:08:55.560Z,21.00
2023-12-16T21:11:29.572Z,24.00
2023-12-16T21:14:10.502Z,23.90
2023-12-16T21:16:47.437Z,18.90
2023-12-16T21:19:21.955Z,20.50
2023-12-16T21:22:07.064Z,19.40
2023-12-16T21:24:43.745Z,19.90
2023-12-16T21:27:16.982Z,19.80
2023-12-16T21:29:50.956Z,25.90
2023-12-16T21:32:24.845Z,22.10
2023-12-16T21:34:59.180Z,19.70
2023-12-16T21:37:40.873Z,20.70
2023-12-16T21:40:19.402Z,19.00
2023-12-16T21:42:54.854Z,19.00
2023-12-16T21:45:29.258Z,22.60
2023-12-16T21:48:07.473Z,22.20
2023-12-16T21:50:42.081Z,23.00
2023-12-16T21:53:18.148Z,20.90
2023-12-16T21:55:52.940Z,22.20
2023-12-16T21:58:28.485Z,20.70
2023-12-16T22:01:02.315Z,19.70
2023-12-16T22:03:37.237Z,18.40
2023-12-16T22:06:12.284Z,18.90
2023-12-16T22:08:55.196Z,18.90
2023-12-16T22:11:29.555Z,20.80
2023-12-16T22:14:05.221Z,18.80
2023-12-16T22:16:39.901Z,18.60
2023-12-16T22:19:13.957Z,19.40
2023-12-16T22:21:48.211Z,21.80
2023-12-16T22:24:22.113Z,18.00
2023-12-16T22:26:56.255Z,18.30
2023-12-16T22:29:30.412Z,15.60
2023-12-16T22:32:04.237Z,17.60
2023-12-16T22:34:38.282Z,15.60
2023-12-16T22:37:12.021Z,23.00
2023-12-16T22:39:45.792Z,19.30
2023-12-16T22:42:20.841Z,16.30
2023-12-16T22:44:54.521Z,17.80
2023-12-16T22:47:28.998Z,16.60
2023-12-16T22:50:03.060Z,15.60
2023-12-16T22:52:37.777Z,16.20
2023-12-16T22:55:12.653Z,15.20
2023-12-16T22:57:46.406Z,17.50
2023-12-16T23:00:27.350Z,16.90
2023-12-16T23:03:01.363Z,19.10
2023-12-16T23:05:35.072Z,17.70
2023-12-16T23:08:08.881Z,19.50
2023-12-16T23:10:42.343Z,16.00
2023-12-16T23:13:16.065Z,18.60
2023-12-16T23:15:50.010Z,19.10
2023-12-16T23:18:23.779Z,15.20
2023-12-16T23:20:57.510Z,16.90
2023-12-16T23:23:34.225Z,18.60
2023-12-16T23:26:09.335Z,17.80
2023-12-16T23:28:43.132Z,15.00
2023-12-16T23:31:16.563Z,11.50
2023-12-16T23:33:50.659Z,12.20
2023-12-16T23:36:24.506Z,14.50
2023-12-16T23:38:58.048Z,13.20
2023-12-16T23:41:31.649Z,12.80
2023-12-16T23:44:05.220Z,12.20
2023-12-16T23:46:38.860Z,14.40
2023-12-16T23:49:12.586Z,11.10
2023-12-16T23:51:46.512Z,13.50
2023-12-16T23:54:20.346Z,12.90
2023-12-16T23:56:54.156Z,12.30
2023-12-16T23:59:27.855Z,13.20
